createdAt,value
2022-08-21T00:00:54.601Z,1.90
2022-08-21T00:03:25.513Z,2.00
2022-08-21T00:05:52.929Z,1.80
2022-08-21T00:08:20.934Z,2.00
2022-08-21T00:10:48.851Z,1.73
2022-08-21T00:13:19.001Z,2.13
2022-08-21T00:15:46.424Z,1.80
2022-08-21T00:18:14.104Z,2.15
2022-08-21T00:20:43.899Z,2.00
2022-08-21T00:23:11.558Z,1.98
2022-08-21T00:25:38.921Z,2.10
2022-08-21T00:28:07.628Z,1.90
2022-08-21T00:30:35.521Z,1.90
2022-08-21T00:33:03.116Z,2.15
2022-08-21T00:35:32.823Z,2.05
2022-08-21T00:38:00.296Z,2.10
2022-08-21T00:40:33.050Z,2.15
2022-08-21T00:43:00.484Z,2.00
2022-08-21T00:45:28.964Z,2.03
2022-08-21T00:47:57.038Z,2.10
2022-08-21T00:50:24.769Z,1.83
2022-08-21T00:52:53.443Z,2.45
2022-08-21T00:55:22.279Z,1.90
2022-08-21T00:57:52.850Z,2.05
2022-08-21T01:00:22.592Z,1.83
2022-08-21T01:02:50.039Z,2.20
2022-08-21T01:05:18.175Z,2.03
2022-08-21T01:07:46.158Z,1.85
2022-08-21T01:10:24.544Z,2.30
2022-08-21T01:12:53.329Z,2.05
2022-08-21T01:15:21.513Z,2.25
2022-08-21T01:17:50.039Z,2.17
2022-08-21T01:20:17.905Z,2.08
2022-08-21T01:22:46.065Z,2.20
2022-08-21T01:25:14.633Z,2.05
2022-08-21T01:27:45.624Z,2.08
2022-08-21T01:30:15.872Z,2.30
2022-08-21T01:32:44.122Z,1.90
2022-08-21T01:35:12.368Z,1.80
2022-08-21T01:37:39.673Z,2.20
2022-08-21T01:40:07.560Z,2.30
2022-08-21T01:42:35.575Z,2.33
2022-08-21T01:45:02.854Z,1.85
2022-08-21T01:47:30.185Z,2.35
2022-08-21T01:49:57.495Z,2.00
2022-08-21T01:52:25.188Z,2.10
2022-08-21T01:54:55.117Z,2.50
2022-08-21T01:57:26.223Z,2.08
2022-08-21T01:59:54.150Z,2.22
2022-08-21T02:02:21.461Z,2.45
2022-08-21T02:04:49.608Z,2.22
2022-08-21T02:07:16.932Z,2.35
2022-08-21T02:09:44.348Z,2.47
2022-08-21T02:12:12.403Z,2.03
2022-08-21T02:14:39.918Z,2.38
2022-08-21T02:17:08.921Z,2.40
2022-08-21T02:19:40.489Z,2.30
2022-08-21T02:22:09.840Z,2.53
2022-08-21T02:24:38.512Z,2.20
2022-08-21T02:27:26.314Z,2.40
2022-08-21T02:29:53.963Z,2.22
2022-08-21T02:32:22.469Z,2.60
2022-08-21T02:34:50.292Z,2.60
2022-08-21T02:37:18.401Z,2.30
2022-08-21T02:39:45.680Z,2.20
2022-08-21T02:42:12.962Z,2.67
2022-08-21T02:44:40.482Z,2.42
2022-08-21T02:47:08.176Z,2.80
2022-08-21T02:49:35.483Z,3.00
2022-08-21T02:52:02.851Z,2.28
2022-08-21T02:54:30.127Z,2.45
2022-08-21T02:56:58.322Z,2.55
2022-08-21T02:59:25.596Z,2.42
2022-08-21T03:01:55.167Z,2.85
2022-08-21T03:04:23.279Z,2.43
2022-08-21T03:06:50.605Z,2.25
2022-08-21T03:09:17.885Z,2.70
2022-08-21T03:11:45.284Z,2.35
2022-08-21T03:14:12.655Z,2.70
2022-08-21T03:16:39.904Z,2.90
2022-08-21T03:19:07.223Z,2.47
2022-08-21T03:21:34.755Z,2.88
2022-08-21T03:24:04.255Z,2.67
2022-08-21T03:26:31.929Z,3.00
2022-08-21T03:29:00.027Z,2.75
2022-08-21T03:31:32.017Z,2.63
2022-08-21T03:34:00.326Z,2.38
2022-08-21T03:36:27.773Z,2.67
2022-08-21T03:38:55.165Z,2.85
2022-08-21T03:41:22.644Z,2.72
2022-08-21T03:43:49.951Z,3.13
2022-08-21T03:46:17.309Z,2.67
2022-08-21T03:48:45.509Z,3.00
2022-08-21T03:51:13.254Z,2.50
2022-08-21T03:53:40.883Z,2.60
2022-08-21T03:56:08.384Z,2.47
2022-08-21T03:58:36.359Z,2.65
2022-08-21T04:01:05.706Z,2.90
2022-08-21T04:03:33.006Z,2.50
2022-08-21T04:06:00.303Z,2.65
2022-08-21T04:08:27.662Z,2.58
2022-08-21T04:10:57.779Z,2.80
2022-08-21T04:13:25.038Z,3.23
2022-08-21T04:15:52.389Z,2.70
2022-08-21T04:18:19.966Z,3.38
2022-08-21T04:20:49.904Z,2.70
2022-08-21T04:23:23.815Z,2.90
2022-08-21T04:25:52.068Z,3.00
2022-08-21T04:28:19.427Z,3.13
2022-08-21T04:30:46.941Z,3.17
2022-08-21T04:33:14.947Z,3.37
2022-08-21T04:35:43.133Z,3.50
2022-08-21T04:38:10.427Z,3.33
2022-08-21T04:40:38.364Z,2.70
2022-08-21T04:43:08.690Z,3.20
2022-08-21T04:45:37.832Z,3.10
2022-08-21T04:48:09.672Z,2.92
2022-08-21T04:50:44.057Z,3.00
2022-08-21T04:53:16.977Z,3.00
2022-08-21T04:55:45.424Z,3.20
2022-08-21T04:58:14.488Z,3.20
2022-08-21T05:00:42.188Z,3.00
2022-08-21T05:03:10.892Z,2.60
2022-08-21T05:05:38.396Z,2.40
2022-08-21T05:08:06.531Z,2.80
2022-08-21T05:10:33.980Z,2.70
2022-08-21T05:13:02.222Z,2.80
2022-08-21T05:15:31.051Z,3.40
2022-08-21T05:18:01.294Z,3.00
2022-08-21T05:20:29.310Z,2.90
2022-08-21T05:22:56.978Z,3.00
2022-08-21T05:25:24.665Z,2.87
2022-08-21T05:27:52.591Z,2.90
2022-08-21T05:30:20.601Z,3.00
2022-08-21T05:32:48.931Z,3.40
2022-08-21T05:35:16.967Z,2.70
2022-08-21T05:37:44.264Z,3.00
2022-08-21T05:40:22.587Z,2.93
2022-08-21T05:42:54.657Z,2.95
2022-08-21T05:45:42.176Z,2.60
2022-08-21T05:48:16.169Z,2.63
2022-08-21T05:50:44.074Z,2.55
2022-08-21T05:53:11.751Z,2.70
2022-08-21T05:55:44.787Z,2.53
2022-08-21T05:58:14.424Z,2.70
2022-08-21T06:00:42.485Z,3.33
2022-08-21T06:03:18.561Z,5.05
2022-08-21T06:05:46.854Z,5.50
2022-08-21T06:08:14.515Z,6.47
2022-08-21T06:10:42.142Z,5.13
2022-08-21T06:13:09.464Z,4.57
2022-08-21T06:15:36.787Z,3.88
2022-08-21T06:18:04.195Z,3.45
2022-08-21T06:20:32.581Z,2.97
2022-08-21T06:23:00.591Z,3.35
2022-08-21T06:25:28.235Z,3.47
2022-08-21T06:28:01.727Z,2.90
2022-08-21T06:30:29.084Z,2.95
2022-08-21T06:32:56.434Z,3.10
2022-08-21T06:35:25.437Z,3.03
2022-08-21T06:37:53.065Z,3.05
2022-08-21T06:40:20.542Z,2.95
2022-08-21T06:42:49.939Z,3.30
2022-08-21T06:45:17.261Z,3.55
2022-08-21T06:47:44.862Z,3.30
2022-08-21T06:50:12.460Z,3.45
2022-08-21T06:52:39.909Z,3.08
2022-08-21T06:55:08.556Z,3.03
2022-08-21T06:57:36.300Z,3.08
2022-08-21T07:00:07.261Z,3.60
2022-08-21T07:02:34.809Z,3.40
2022-08-21T07:05:17.982Z,3.55
2022-08-21T07:07:46.521Z,2.70
2022-08-21T07:10:22.413Z,3.03
2022-08-21T07:12:59.107Z,3.10
2022-08-21T07:15:32.033Z,3.05
2022-08-21T07:18:03.184Z,3.30
2022-08-21T07:20:31.479Z,2.88
2022-08-21T07:23:01.860Z,2.97
2022-08-21T07:25:29.251Z,2.65
2022-08-21T07:27:56.618Z,2.83
2022-08-21T07:30:24.231Z,3.38
2022-08-21T07:32:52.102Z,2.92
2022-08-21T07:35:20.121Z,2.83
2022-08-21T07:37:47.546Z,3.40
2022-08-21T07:40:15.252Z,2.97
2022-08-21T07:42:48.172Z,3.85
2022-08-21T07:45:16.833Z,3.50
2022-08-21T07:47:44.270Z,3.47
2022-08-21T07:50:12.733Z,3.80
2022-08-21T07:52:40.985Z,3.30
2022-08-21T07:55:09.483Z,3.35
2022-08-21T07:57:36.940Z,2.75
2022-08-21T08:00:11.931Z,2.75
2022-08-21T08:02:39.219Z,3.10
2022-08-21T08:05:07.676Z,3.10
2022-08-21T08:07:37.475Z,2.42
2022-08-21T08:10:05.658Z,2.78
2022-08-21T08:12:33.128Z,2.90
2022-08-21T08:15:01.339Z,2.90
2022-08-21T08:17:28.748Z,2.85
2022-08-21T08:19:56.805Z,2.92
2022-08-21T08:22:25.973Z,3.25
2022-08-21T08:24:53.837Z,2.85
2022-08-21T08:27:21.890Z,2.72
2022-08-21T08:29:51.649Z,2.90
2022-08-21T08:32:19.857Z,2.65
2022-08-21T08:34:48.237Z,2.97
2022-08-21T08:37:16.121Z,2.95
2022-08-21T08:39:43.757Z,2.88
2022-08-21T08:42:33.642Z,2.22
2022-08-21T08:45:05.016Z,2.55
2022-08-21T08:47:33.950Z,2.70
2022-08-21T08:50:11.910Z,3.10
2022-08-21T08:52:43.980Z,2.88
2022-08-21T08:55:27.050Z,2.70
2022-08-21T08:57:55.415Z,2.90
2022-08-21T09:00:24.062Z,2.70
2022-08-21T09:02:57.860Z,3.03
2022-08-21T09:05:28.109Z,3.00
2022-08-21T09:08:05.196Z,2.97
2022-08-21T09:10:51.602Z,2.97
2022-08-21T09:13:38.383Z,2.72
2022-08-21T09:16:20.635Z,2.75
2022-08-21T09:19:06.367Z,2.67
2022-08-21T09:21:42.904Z,2.67
2022-08-21T09:24:19.390Z,2.70
2022-08-21T09:26:58.746Z,2.30
2022-08-21T09:29:27.272Z,2.58
2022-08-21T09:31:55.086Z,2.70
2022-08-21T09:34:27.319Z,2.50
2022-08-21T09:36:54.945Z,2.40
2022-08-21T09:39:25.410Z,2.15
2022-08-21T09:42:06.418Z,2.30
2022-08-21T09:44:37.065Z,2.38
2022-08-21T09:47:04.912Z,2.38
2022-08-21T09:49:34.074Z,2.60
2022-08-21T09:52:01.663Z,2.35
2022-08-21T09:54:32.200Z,2.17
2022-08-21T09:57:31.685Z,2.55
2022-08-21T10:00:09.319Z,2.65
2022-08-21T10:02:37.954Z,2.95
2022-08-21T10:05:25.691Z,2.60
2022-08-21T10:07:53.555Z,2.38
2022-08-21T10:10:25.972Z,2.80
2022-08-21T10:12:59.812Z,2.38
2022-08-21T10:15:33.191Z,2.47
2022-08-21T10:18:03.590Z,9.35
2022-08-21T10:20:57.383Z,3.30
2022-08-21T10:23:34.048Z,2.50
2022-08-21T10:26:27.693Z,2.40
2022-08-21T10:29:07.560Z,2.45
2022-08-21T10:31:40.891Z,2.45
2022-08-21T10:34:17.449Z,2.38
2022-08-21T10:36:48.096Z,2.50
2022-08-21T10:39:26.475Z,1.80
2022-08-21T10:42:06.370Z,2.47
2022-08-21T10:44:45.950Z,2.30
2022-08-21T10:47:31.944Z,2.00
2022-08-21T10:50:20.513Z,2.40
2022-08-21T10:52:57.481Z,2.35
2022-08-21T10:55:32.564Z,3.03
2022-08-21T10:58:06.537Z,3.10
2022-08-21T11:00:55.138Z,2.80
2022-08-21T11:03:26.382Z,2.50
2022-08-21T11:05:56.251Z,2.10
2022-08-21T11:08:31.797Z,1.90
2022-08-21T11:11:01.722Z,1.90
2022-08-21T11:13:34.426Z,2.08
2022-08-21T11:16:20.810Z,2.00
2022-08-21T11:18:55.630Z,2.45
2022-08-21T11:21:42.073Z,2.25
2022-08-21T11:24:21.730Z,1.75
2022-08-21T11:27:01.444Z,2.20
2022-08-21T11:29:30.047Z,2.10
2022-08-21T11:31:57.275Z,2.28
2022-08-21T11:34:27.582Z,2.17
2022-08-21T11:37:20.337Z,2.00
2022-08-21T11:39:54.653Z,1.58
2022-08-21T11:42:26.929Z,2.60
2022-08-21T11:45:04.486Z,2.20
2022-08-21T11:47:52.058Z,2.58
2022-08-21T11:50:34.924Z,3.00
2022-08-21T11:53:22.111Z,2.55
2022-08-21T11:55:56.723Z,2.10
2022-08-21T11:58:33.470Z,1.95
2022-08-21T12:01:09.162Z,1.95
2022-08-21T12:03:38.499Z,2.13
2022-08-21T12:06:10.785Z,2.10
2022-08-21T12:08:43.446Z,1.73
2022-08-21T12:11:12.545Z,1.98
2022-08-21T12:13:42.870Z,1.95
2022-08-21T12:16:29.896Z,1.65
2022-08-21T12:19:08.456Z,1.90
2022-08-21T12:21:48.401Z,1.83
2022-08-21T12:24:15.844Z,1.83
2022-08-21T12:26:54.425Z,2.03
2022-08-21T12:29:25.240Z,1.67
2022-08-21T12:31:55.078Z,1.60
2022-08-21T12:34:24.419Z,1.80
2022-08-21T12:36:56.540Z,1.80
2022-08-21T12:39:28.650Z,1.80
2022-08-21T12:42:02.553Z,1.80
2022-08-21T12:44:34.247Z,1.92
2022-08-21T12:47:16.226Z,1.80
2022-08-21T12:49:52.612Z,1.73
2022-08-21T12:52:25.112Z,2.00
2022-08-21T12:54:52.466Z,1.75
2022-08-21T12:57:21.755Z,2.05
2022-08-21T12:59:53.838Z,1.70
2022-08-21T13:02:23.870Z,2.13
2022-08-21T13:04:51.540Z,1.90
2022-08-21T13:07:24.142Z,2.03
2022-08-21T13:09:53.987Z,2.00
2022-08-21T13:12:23.135Z,1.80
2022-08-21T13:14:50.736Z,2.08
2022-08-21T13:17:25.736Z,2.60
2022-08-21T13:20:01.530Z,2.38
2022-08-21T13:22:34.363Z,2.35
2022-08-21T13:25:06.819Z,3.13
2022-08-21T13:27:35.606Z,2.38
2022-08-21T13:30:14.864Z,2.38
2022-08-21T13:32:43.967Z,2.25
2022-08-21T13:35:17.983Z,1.90
2022-08-21T13:37:51.751Z,1.88
2022-08-21T13:40:22.101Z,2.10
2022-08-21T13:42:54.814Z,2.47
2022-08-21T13:45:43.049Z,2.25
2022-08-21T13:48:11.898Z,1.90
2022-08-21T13:50:40.344Z,2.00
2022-08-21T13:53:08.796Z,2.25
2022-08-21T13:55:38.257Z,2.00
2022-08-21T13:58:06.214Z,2.00
2022-08-21T14:00:36.700Z,2.42
2022-08-21T14:03:08.218Z,1.90
2022-08-21T14:10:31.471Z,1.63
2022-08-21T14:12:58.922Z,1.65
2022-08-21T14:15:29.954Z,1.90
2022-08-21T14:18:08.639Z,1.85
2022-08-21T14:20:36.688Z,1.83
2022-08-21T14:23:04.325Z,1.80
2022-08-21T14:25:43.802Z,1.83
2022-08-21T14:28:27.068Z,1.88
2022-08-21T14:30:56.160Z,1.70
2022-08-21T14:33:27.268Z,2.05
2022-08-21T14:35:55.119Z,1.58
2022-08-21T14:38:23.859Z,2.00
2022-08-21T14:40:52.354Z,2.08
2022-08-21T14:43:20.743Z,2.30
2022-08-21T14:45:48.455Z,2.22
2022-08-21T14:48:16.214Z,2.00
2022-08-21T14:50:43.575Z,2.10
2022-08-21T14:53:11.467Z,1.98
2022-08-21T14:55:58.457Z,1.98
2022-08-21T14:58:26.595Z,2.25
2022-08-21T15:00:55.601Z,2.13
2022-08-21T15:03:23.259Z,2.35
2022-08-21T15:05:52.539Z,2.28
2022-08-21T15:08:20.310Z,2.10
2022-08-21T15:11:10.621Z,2.50
2022-08-21T15:13:35.729Z,2.45
2022-08-21T15:16:03.702Z,2.53
2022-08-21T15:18:31.805Z,2.90
2022-08-21T15:20:59.304Z,2.40
2022-08-21T15:23:26.689Z,2.92
2022-08-21T15:25:54.952Z,2.42
2022-08-21T15:28:23.539Z,2.30
2022-08-21T15:30:51.353Z,2.65
2022-08-21T15:33:19.202Z,3.22
2022-08-21T15:35:47.213Z,2.60
2022-08-21T15:38:15.242Z,2.95
2022-08-21T15:40:51.532Z,2.80
2022-08-21T15:43:30.311Z,2.90
2022-08-21T15:45:59.856Z,2.17
2022-08-21T15:48:27.518Z,2.30
2022-08-21T15:50:54.958Z,2.60
2022-08-21T15:53:22.332Z,2.60
2022-08-21T15:55:49.698Z,2.83
2022-08-21T15:58:17.802Z,2.60
2022-08-21T16:00:45.755Z,2.40
2022-08-21T16:03:16.839Z,2.60
2022-08-21T16:05:49.679Z,2.40
2022-08-21T16:08:17.022Z,2.70
2022-08-21T16:10:44.512Z,2.83
2022-08-21T16:13:25.085Z,2.38
2022-08-21T16:15:55.764Z,2.50
2022-08-21T16:18:23.983Z,2.85
2022-08-21T16:20:51.410Z,2.50
2022-08-21T16:23:18.855Z,2.50
2022-08-21T16:25:46.315Z,2.70
2022-08-21T16:28:15.701Z,2.72
2022-08-21T16:30:44.640Z,2.58
2022-08-21T16:33:16.836Z,2.80
2022-08-21T16:35:44.168Z,2.60
2022-08-21T16:38:11.999Z,2.65
2022-08-21T16:40:39.254Z,2.70
2022-08-21T16:43:06.596Z,2.30
2022-08-21T16:45:34.858Z,2.80
2022-08-21T16:48:04.617Z,2.70
2022-08-21T16:50:32.902Z,2.85
2022-08-21T16:53:00.403Z,2.30
2022-08-21T16:55:27.767Z,2.70
2022-08-21T16:57:55.579Z,2.85
2022-08-21T17:00:23.536Z,2.38
2022-08-21T17:02:54.495Z,2.60
2022-08-21T17:05:21.912Z,2.50
2022-08-21T17:07:49.227Z,2.58
2022-08-21T17:10:17.011Z,2.60
2022-08-21T17:12:46.556Z,2.80
2022-08-21T17:15:21.604Z,2.63
2022-08-21T17:17:49.409Z,2.42
2022-08-21T17:20:17.445Z,2.80
2022-08-21T17:22:44.745Z,2.60
2022-08-21T17:25:12.472Z,2.53
2022-08-21T17:27:40.162Z,2.22
2022-08-21T17:30:08.193Z,3.10
2022-08-21T17:32:35.544Z,2.40
2022-08-21T17:35:02.941Z,2.20
2022-08-21T17:37:30.298Z,2.70
2022-08-21T17:39:58.033Z,2.78
2022-08-21T17:42:25.695Z,2.80
2022-08-21T17:44:53.585Z,2.70
2022-08-21T17:47:20.895Z,3.00
2022-08-21T17:49:48.233Z,2.85
2022-08-21T17:52:15.693Z,2.92
2022-08-21T17:54:43.103Z,3.30
2022-08-21T17:57:16.305Z,3.17
2022-08-21T17:59:43.756Z,3.45
2022-08-21T18:02:19.552Z,3.15
2022-08-21T18:04:50.461Z,3.08
2022-08-21T18:07:31.847Z,3.17
2022-08-21T18:10:00.106Z,2.92
2022-08-21T18:12:27.689Z,3.05
2022-08-21T18:14:55.033Z,2.78
2022-08-21T18:17:24.491Z,3.10
2022-08-21T18:19:52.230Z,2.65
2022-08-21T18:22:19.714Z,2.90
2022-08-21T18:24:47.046Z,3.47
2022-08-21T18:27:15.504Z,3.00
2022-08-21T18:29:47.399Z,2.95
2022-08-21T18:32:29.630Z,3.08
2022-08-21T18:35:00.230Z,3.15
2022-08-21T18:37:27.565Z,3.17
2022-08-21T18:39:55.172Z,3.10
2022-08-21T18:42:28.299Z,3.38
2022-08-21T18:45:00.726Z,3.22
2022-08-21T18:47:33.745Z,3.13
2022-08-21T18:50:02.104Z,3.00
2022-08-21T18:52:31.053Z,3.63
2022-08-21T18:54:58.518Z,3.38
2022-08-21T18:57:34.202Z,3.10
2022-08-21T19:00:05.898Z,3.22
2022-08-21T19:02:35.881Z,3.53
2022-08-21T19:05:05.046Z,3.30
2022-08-21T19:07:34.206Z,3.53
2022-08-21T19:10:27.939Z,3.05
2022-08-21T19:12:49.184Z,3.20
2022-08-21T19:15:17.895Z,3.95
2022-08-21T19:17:47.124Z,3.72
2022-08-21T19:20:29.064Z,3.88
2022-08-21T19:22:57.138Z,3.20
2022-08-21T19:25:34.058Z,3.80
2022-08-21T19:28:10.954Z,4.00
2022-08-21T19:30:40.487Z,4.18
2022-08-21T19:33:08.163Z,4.10
2022-08-21T19:35:35.643Z,5.75
2022-08-21T19:38:03.086Z,6.50
2022-08-21T19:40:32.854Z,4.90
2022-08-21T19:43:00.483Z,4.90
2022-08-21T19:45:28.947Z,3.88
2022-08-21T19:50:44.122Z,4.13
2022-08-21T19:53:12.087Z,4.57
2022-08-21T19:55:43.470Z,4.30
2022-08-21T19:58:26.716Z,4.30
2022-08-21T20:00:54.097Z,4.35
2022-08-21T20:03:21.534Z,4.05
2022-08-21T20:05:49.121Z,4.00
2022-08-21T20:08:20.498Z,4.15
2022-08-21T20:10:49.878Z,4.30
2022-08-21T20:13:17.997Z,4.10
2022-08-21T20:15:46.186Z,4.60
2022-08-21T20:18:14.017Z,4.78
2022-08-21T20:20:41.356Z,4.65
2022-08-21T20:23:10.939Z,4.60
2022-08-21T20:25:39.540Z,4.72
2022-08-21T20:28:07.453Z,4.47
2022-08-21T20:30:35.819Z,4.15
2022-08-21T20:33:03.552Z,4.05
2022-08-21T20:35:31.113Z,4.05
2022-08-21T20:37:59.361Z,4.00
2022-08-21T20:40:32.606Z,4.28
2022-08-21T20:43:00.826Z,3.78
2022-08-21T20:45:30.423Z,4.40
2022-08-21T20:48:11.264Z,4.85
2022-08-21T20:50:40.923Z,4.10
2022-08-21T20:53:17.231Z,3.85
2022-08-21T20:55:46.870Z,4.13
2022-08-21T20:58:19.638Z,3.92
2022-08-21T21:00:47.597Z,4.28
2022-08-21T21:03:30.535Z,4.07
2022-08-21T21:06:11.486Z,3.65
2022-08-21T21:08:46.736Z,3.60
2022-08-21T21:11:14.426Z,3.88
2022-08-21T21:13:49.983Z,4.00
2022-08-21T21:16:22.854Z,3.88
2022-08-21T21:18:53.509Z,3.75
2022-08-21T21:21:23.823Z,4.28
2022-08-21T21:24:05.023Z,3.95
2022-08-21T21:26:35.437Z,4.35
2022-08-21T21:29:06.046Z,4.60
2022-08-21T21:31:37.949Z,4.10
2022-08-21T21:34:05.322Z,4.22
2022-08-21T21:39:44.724Z,4.53
2022-08-21T21:42:16.050Z,4.13
2022-08-21T21:44:52.696Z,4.13
2022-08-21T21:47:39.083Z,4.40
2022-08-21T21:50:14.453Z,4.38
2022-08-21T21:53:05.009Z,4.65
2022-08-21T21:55:42.686Z,4.60
2022-08-21T21:58:25.739Z,4.30
2022-08-21T22:01:00.660Z,4.43
2022-08-21T22:03:39.208Z,4.30
2022-08-21T22:06:09.082Z,4.25
2022-08-21T22:08:41.429Z,4.68
2022-08-21T22:11:24.496Z,4.20
2022-08-21T22:14:08.634Z,4.43
2022-08-21T22:16:36.854Z,4.43
2022-08-21T22:19:14.766Z,4.43
2022-08-21T22:21:45.408Z,4.35
2022-08-21T22:24:40.368Z,4.00
2022-08-21T22:27:10.910Z,3.83
2022-08-21T22:29:49.772Z,4.45
2022-08-21T22:32:23.755Z,3.97
2022-08-21T22:35:03.431Z,4.47
2022-08-21T22:37:35.396Z,4.43
2022-08-21T22:40:04.491Z,4.55
2022-08-21T22:42:31.794Z,4.70
2022-08-21T22:45:01.240Z,4.13
2022-08-21T22:47:34.777Z,4.78
2022-08-21T22:50:04.961Z,4.53
2022-08-21T22:52:34.224Z,4.72
2022-08-21T22:55:24.641Z,4.35
2022-08-21T22:58:04.450Z,4.55
2022-08-21T23:00:41.178Z,4.68
2022-08-21T23:03:16.439Z,4.78
2022-08-21T23:05:44.980Z,4.63
2022-08-21T23:08:24.014Z,4.38
2022-08-21T23:10:52.057Z,4.20
2022-08-21T23:13:20.264Z,4.40
2022-08-21T23:15:56.819Z,4.50
2022-08-21T23:18:25.773Z,4.28
2022-08-21T23:21:08.622Z,4.40
2022-08-21T23:23:42.237Z,4.40
2022-08-21T23:26:19.766Z,4.88
2022-08-21T23:29:06.094Z,4.13
2022-08-21T23:31:40.611Z,4.57
2022-08-21T23:34:25.599Z,4.07
2022-08-21T23:37:49.124Z,4.60
2022-08-21T23:40:28.055Z,4.75
2022-08-21T23:43:02.248Z,4.57
2022-08-21T23:45:52.513Z,4.57
2022-08-21T23:48:32.147Z,4.72
2022-08-21T23:51:03.710Z,4.78
2022-08-21T23:53:50.496Z,4.80
2022-08-21T23:56:25.390Z,4.28
2022-08-21T23:59:10.282Z,4.18
